Terminal Aerodrome Forecast
Issued by NWS

Home | Current Version | Previous Version | Text Only | Print | Product List | Glossary On
Versions: 1 2 3 4 5 6 7 8 9 10 11 12 13 14 15 16 17 18 19
000
FTUS43 KMPX 231100
TAFAXN
TAF
KAXN 231139Z 2312/2412 08005KT 3SM BR OVC003
     FM231500 08007KT 6SM BR BKN007
     FM231600 10012G20KT P6SM BKN018 OVC070
     FM231900 11015G24KT P6SM SCT025 BKN100
     FM240200 12013KT 6SM -SHRA VCTS SCT020 BKN040CB
     FM240600 14012KT 4SM BR OVC004=

USA.gov is the U.S. government's official web portal to all federal, state and local government web resources and services.